Terminal Aerodrome Forecast
Issued by NWS

Home | Current Version | Previous Version | Text Only | Print | Product List | Glossary On
Versions: 1 2 3 4 5 6 7 8 9 10 11 12 13 14 15 16 17 18
000
FTUS41 KBGM 200539
TAFRME
TAF
KRME 200539Z 2006/2106 10010KT 6SM -RA OVC030 WS020/24040KT
     FM201000 11005KT 4SM -SHRA BR OVC020 WS020/25035KT
     FM201400 12005KT 5SM BR OVC015 WS020/25030KT
     FM201600 16006KT P6SM OVC020 WS020/24035KT
     FM202300 17006KT P6SM BKN035 WS020/25040KT
     FM210200 17006KT P6SM BKN015 WS015/24040KT=

USA.gov is the U.S. government's official web portal to all federal, state and local government web resources and services.